createdAt,value
2023-04-03T00:00:33.444Z,96.00
2023-04-03T00:03:00.580Z,96.10
2023-04-03T00:05:27.498Z,96.10
2023-04-03T00:07:54.352Z,96.10
2023-04-03T00:10:21.159Z,96.20
2023-04-03T00:12:47.972Z,96.20
2023-04-03T00:15:14.883Z,96.20
2023-04-03T00:17:41.741Z,96.30
2023-04-03T00:20:08.890Z,96.30
2023-04-03T00:22:35.940Z,96.30
2023-04-03T00:25:02.933Z,96.40
2023-04-03T00:27:29.771Z,96.40
2023-04-03T00:29:56.598Z,96.40
2023-04-03T00:32:23.636Z,96.50
2023-04-03T00:34:50.529Z,96.50
2023-04-03T00:37:17.362Z,96.50
2023-04-03T00:39:47.522Z,96.60
2023-04-03T00:42:14.418Z,96.60
2023-04-03T00:44:41.160Z,96.60
2023-04-03T00:47:09.478Z,96.70
2023-04-03T00:49:39.156Z,96.90
2023-04-03T00:52:07.732Z,96.80
2023-04-03T00:54:34.966Z,96.80
2023-04-03T00:57:01.907Z,96.80
2023-04-03T00:59:31.611Z,96.80
2023-04-03T01:02:00.201Z,96.80
2023-04-03T01:04:45.507Z,96.90
2023-04-03T01:07:23.870Z,96.90
2023-04-03T01:09:52.712Z,96.90
2023-04-03T01:12:20.665Z,97.00
2023-04-03T01:14:49.048Z,97.00
2023-04-03T01:17:29.197Z,97.00
2023-04-03T01:20:38.657Z,97.00
2023-04-03T01:23:14.583Z,97.10
2023-04-03T01:25:55.797Z,97.10
2023-04-03T01:28:28.976Z,97.20
2023-04-03T01:31:20.331Z,97.20
2023-04-03T01:33:47.364Z,97.20
2023-04-03T01:36:22.549Z,97.20
2023-04-03T01:38:49.706Z,97.30
2023-04-03T01:41:16.989Z,97.30
2023-04-03T01:43:44.194Z,97.30
2023-04-03T01:46:11.204Z,97.30
2023-04-03T01:48:38.149Z,97.40
2023-04-03T01:51:05.050Z,97.40
2023-04-03T01:53:31.861Z,97.40
2023-04-03T01:55:58.869Z,97.50
2023-04-03T01:58:25.768Z,97.50
2023-04-03T02:00:53.001Z,97.50
2023-04-03T02:03:20.116Z,97.50
2023-04-03T02:05:47.015Z,97.50
2023-04-03T02:08:14.150Z,97.60
2023-04-03T02:10:40.956Z,97.60
2023-04-03T02:13:08.148Z,97.60
2023-04-03T02:15:35.059Z,97.60
2023-04-03T02:18:01.846Z,97.70
2023-04-03T02:20:37.851Z,97.70
2023-04-03T02:23:04.823Z,97.70
2023-04-03T02:25:32.469Z,97.80
2023-04-03T02:27:59.491Z,97.80
2023-04-03T02:30:26.396Z,97.80
2023-04-03T02:32:53.365Z,97.80
2023-04-03T02:35:20.441Z,97.90
2023-04-03T02:37:47.263Z,97.90
2023-04-03T02:40:15.198Z,97.90
2023-04-03T02:42:42.073Z,98.00
2023-04-03T02:45:09.173Z,98.00
2023-04-03T02:47:36.336Z,98.00
2023-04-03T02:50:03.347Z,98.00
2023-04-03T02:52:30.292Z,98.00
2023-04-03T02:54:57.083Z,98.10
2023-04-03T02:57:24.223Z,98.10
2023-04-03T02:59:51.058Z,98.10
2023-04-03T03:02:17.836Z,98.20
2023-04-03T03:04:44.638Z,98.20
2023-04-03T03:07:11.682Z,98.20
2023-04-03T03:09:38.496Z,98.20
2023-04-03T03:12:05.570Z,98.20
2023-04-03T03:14:32.465Z,98.30
2023-04-03T03:16:59.297Z,98.30
2023-04-03T03:19:26.081Z,98.30
2023-04-03T03:21:53.055Z,98.30
2023-04-03T03:24:19.886Z,98.40
2023-04-03T03:26:46.700Z,98.40
2023-04-03T03:29:13.621Z,98.40
2023-04-03T03:31:40.554Z,98.40
2023-04-03T03:34:07.374Z,98.50
2023-04-03T03:36:34.158Z,98.50
2023-04-03T03:39:00.950Z,98.50
2023-04-03T03:41:27.766Z,98.60
2023-04-03T03:43:54.708Z,98.80
2023-04-03T03:46:21.826Z,98.60
2023-04-03T03:48:48.691Z,98.70
2023-04-03T03:51:15.487Z,98.60
2023-04-03T03:53:42.341Z,98.70
2023-04-03T03:56:09.209Z,98.70
2023-04-03T03:58:36.568Z,98.70
2023-04-03T04:01:04.361Z,98.70
2023-04-03T04:03:33.978Z,98.80
2023-04-03T04:06:00.829Z,98.80
2023-04-03T04:08:27.582Z,98.90
2023-04-03T04:10:54.555Z,98.90
2023-04-03T04:13:21.324Z,99.00
2023-04-03T04:15:48.120Z,99.10
2023-04-03T04:18:15.751Z,99.10
2023-04-03T04:20:42.540Z,99.20
2023-04-03T04:23:09.320Z,99.30
2023-04-03T04:25:36.246Z,99.30
2023-04-03T04:28:03.156Z,99.30
2023-04-03T04:30:29.930Z,99.30
2023-04-03T04:32:57.083Z,99.30
2023-04-03T04:35:23.979Z,99.30
2023-04-03T04:37:51.078Z,99.40
2023-04-03T04:40:18.378Z,99.30
2023-04-03T04:42:45.465Z,99.30
2023-04-03T04:45:12.420Z,99.30
2023-04-03T04:47:39.254Z,99.20
2023-04-03T04:50:06.564Z,99.20
2023-04-03T04:52:33.823Z,99.30
2023-04-03T04:55:00.879Z,99.40
2023-04-03T04:57:27.767Z,99.40
2023-04-03T04:59:54.542Z,99.40
2023-04-03T05:02:21.342Z,99.50
2023-04-03T05:04:48.195Z,99.50
2023-04-03T05:07:15.080Z,99.50
2023-04-03T05:09:44.857Z,99.50
2023-04-03T05:12:11.875Z,99.60
2023-04-03T05:14:38.927Z,99.60
2023-04-03T05:17:05.850Z,99.60
2023-04-03T05:19:46.871Z,99.70
2023-04-03T05:22:13.615Z,99.70
2023-04-03T05:24:40.401Z,99.70
2023-04-03T05:27:07.164Z,99.70
2023-04-03T05:29:33.983Z,99.70
2023-04-03T05:32:00.891Z,99.70
2023-04-03T05:34:27.843Z,99.70
2023-04-03T05:36:55.308Z,99.70
2023-04-03T05:39:23.357Z,99.70
2023-04-03T05:41:50.163Z,99.60
2023-04-03T05:44:19.871Z,99.70
2023-04-03T05:46:46.881Z,99.70
2023-04-03T05:49:23.082Z,99.70
2023-04-03T05:51:50.014Z,99.80
2023-04-03T05:54:20.519Z,99.80
2023-04-03T05:56:47.477Z,99.70
2023-04-03T05:59:14.317Z,99.70
2023-04-03T06:01:41.521Z,99.80
2023-04-03T06:04:10.596Z,99.80
2023-04-03T06:06:52.580Z,99.80
2023-04-03T06:09:20.617Z,99.80
2023-04-03T06:11:47.584Z,99.80
2023-04-03T06:14:14.505Z,99.80
2023-04-03T06:16:41.371Z,99.80
2023-04-03T06:19:09.058Z,99.90
2023-04-03T06:21:36.804Z,99.90
2023-04-03T06:24:06.840Z,99.90
2023-04-03T06:26:34.312Z,99.90
2023-04-03T06:29:01.105Z,99.80
2023-04-03T06:31:27.999Z,99.90
2023-04-03T06:33:54.795Z,99.90
2023-04-03T06:36:25.272Z,99.90
2023-04-03T06:38:52.378Z,99.90
2023-04-03T06:41:19.343Z,99.90
2023-04-03T06:43:46.456Z,99.90
2023-04-03T06:46:23.088Z,99.90
2023-04-03T06:48:50.111Z,99.80
2023-04-03T06:51:24.394Z,99.80
2023-04-03T06:53:52.108Z,99.90
2023-04-03T06:56:19.138Z,99.90
2023-04-03T06:58:46.182Z,99.80
2023-04-03T07:01:14.159Z,99.90
2023-04-03T07:03:41.135Z,99.90
2023-04-03T07:06:08.223Z,99.90
2023-04-03T07:08:35.491Z,99.80
2023-04-03T07:11:02.361Z,99.80
2023-04-03T07:13:29.741Z,99.80
2023-04-03T07:15:56.600Z,99.90
2023-04-03T07:18:23.504Z,99.90
2023-04-03T07:20:50.388Z,99.90
2023-04-03T07:23:17.427Z,99.90
2023-04-03T07:25:45.895Z,99.90
2023-04-03T07:28:13.053Z,99.80
2023-04-03T07:30:47.339Z,99.70
2023-04-03T07:33:14.922Z,99.60
2023-04-03T07:35:42.402Z,99.60
2023-04-03T07:38:09.745Z,99.60
2023-04-03T07:40:36.847Z,99.70
2023-04-03T07:43:03.693Z,99.70
2023-04-03T07:45:30.521Z,99.70
2023-04-03T07:47:57.468Z,99.80
2023-04-03T07:50:24.576Z,99.90
2023-04-03T07:52:51.919Z,99.90
2023-04-03T07:55:19.041Z,99.90
2023-04-03T07:57:46.149Z,99.90
2023-04-03T08:00:13.771Z,99.80
2023-04-03T08:02:40.946Z,99.60
2023-04-03T08:05:08.223Z,99.50
2023-04-03T08:07:35.097Z,99.40
2023-04-03T08:10:01.848Z,99.40
2023-04-03T08:12:29.599Z,99.50
2023-04-03T08:14:56.769Z,99.40
2023-04-03T08:17:23.547Z,99.40
2023-04-03T08:19:50.535Z,99.40
2023-04-03T08:22:17.241Z,99.40
2023-04-03T08:24:56.278Z,99.40
2023-04-03T08:27:25.781Z,99.40
2023-04-03T08:29:52.959Z,99.40
2023-04-03T08:32:20.035Z,99.40
2023-04-03T08:34:47.244Z,99.30
2023-04-03T08:37:14.256Z,99.20
2023-04-03T08:39:41.041Z,99.10
2023-04-03T08:42:43.020Z,99.20
2023-04-03T08:45:29.950Z,99.20
2023-04-03T08:48:08.461Z,99.30
2023-04-03T08:50:39.109Z,99.10
2023-04-03T08:53:07.717Z,99.00
2023-04-03T08:55:41.233Z,98.90
2023-04-03T08:58:19.650Z,98.80
2023-04-03T09:01:12.054Z,98.80
2023-04-03T09:03:40.987Z,98.70
2023-04-03T09:06:14.973Z,98.70
2023-04-03T09:08:46.938Z,98.50
2023-04-03T09:11:25.291Z,98.50
2023-04-03T09:14:03.977Z,98.30
2023-04-03T09:16:37.410Z,98.30
2023-04-03T09:19:19.611Z,98.30
2023-04-03T09:21:46.627Z,98.40
2023-04-03T09:24:17.125Z,98.30
2023-04-03T09:26:57.044Z,98.20
2023-04-03T09:29:24.569Z,98.00
2023-04-03T09:32:01.364Z,98.10
2023-04-03T09:34:37.098Z,98.00
2023-04-03T09:37:07.202Z,97.80
2023-04-03T09:39:49.448Z,97.80
2023-04-03T09:42:20.374Z,97.30
2023-04-03T09:45:04.650Z,96.90
2023-04-03T09:47:34.369Z,96.50
2023-04-03T09:50:20.796Z,96.80
2023-04-03T09:52:52.847Z,97.10
2023-04-03T09:55:23.047Z,96.80
2023-04-03T09:57:53.674Z,96.70
2023-04-03T10:00:24.828Z,96.40
2023-04-03T10:02:53.333Z,96.10
2023-04-03T10:05:29.614Z,96.00
2023-04-03T10:08:14.440Z,95.70
2023-04-03T10:10:46.705Z,95.50
2023-04-03T10:13:21.304Z,95.70
2023-04-03T10:16:07.814Z,95.90
2023-04-03T10:18:47.047Z,95.90
2023-04-03T10:21:38.581Z,95.70
2023-04-03T10:24:15.697Z,95.60
2023-04-03T10:26:46.999Z,95.60
2023-04-03T10:29:31.980Z,95.40
2023-04-03T10:32:23.969Z,95.30
2023-04-03T10:35:04.211Z,95.20
2023-04-03T10:37:38.099Z,95.20
2023-04-03T10:40:44.398Z,95.30
2023-04-03T10:43:17.952Z,95.20
2023-04-03T10:46:11.475Z,95.20
2023-04-03T10:48:54.840Z,95.20
2023-04-03T10:51:33.940Z,95.10
2023-04-03T10:54:10.681Z,95.00
2023-04-03T10:57:04.542Z,94.80
2023-04-03T10:59:38.272Z,94.60
2023-04-03T11:02:17.448Z,94.60
2023-04-03T11:04:44.936Z,94.10
2023-04-03T11:07:16.705Z,94.20
2023-04-03T11:09:44.824Z,94.00
2023-04-03T11:12:24.986Z,94.00
2023-04-03T11:14:52.380Z,93.90
2023-04-03T11:17:29.120Z,93.70
2023-04-03T11:19:55.907Z,93.80
2023-04-03T11:22:23.830Z,93.30
2023-04-03T11:25:01.614Z,92.90
2023-04-03T11:27:28.695Z,92.60
2023-04-03T11:29:55.603Z,93.00
2023-04-03T11:32:32.423Z,92.80
2023-04-03T11:35:00.332Z,92.10
2023-04-03T11:37:44.928Z,91.70
2023-04-03T11:40:19.036Z,91.60
2023-04-03T11:42:56.448Z,91.20
2023-04-03T11:45:23.533Z,90.30
2023-04-03T11:47:51.057Z,90.30
2023-04-03T11:50:39.161Z,90.10
2023-04-03T11:53:09.654Z,88.40
2023-04-03T11:55:39.585Z,87.10
2023-04-03T11:58:33.235Z,86.50
2023-04-03T12:01:13.271Z,85.50
2023-04-03T12:03:46.284Z,84.60
2023-04-03T12:06:16.690Z,84.80
2023-04-03T12:08:43.636Z,83.70
2023-04-03T12:11:10.616Z,83.50
2023-04-03T12:13:42.383Z,82.00
2023-04-03T12:16:21.997Z,81.60
2023-04-03T12:19:05.351Z,80.50
2023-04-03T12:21:35.231Z,79.80
2023-04-03T12:24:08.846Z,79.50
2023-04-03T12:26:48.530Z,78.20
2023-04-03T12:29:43.897Z,77.90
2023-04-03T12:32:30.261Z,76.80
2023-04-03T12:35:06.546Z,76.50
2023-04-03T12:37:41.718Z,76.20
2023-04-03T12:40:42.917Z,75.70
2023-04-03T12:43:24.745Z,75.10
2023-04-03T12:46:17.034Z,75.90
2023-04-03T12:48:57.153Z,75.30
2023-04-03T12:51:43.631Z,75.40
2023-04-03T12:54:19.888Z,75.10
2023-04-03T12:56:46.738Z,74.50
2023-04-03T12:59:24.641Z,74.00
2023-04-03T13:01:59.145Z,72.80
2023-04-03T13:04:26.014Z,72.40
2023-04-03T13:06:53.448Z,71.90
2023-04-03T13:09:46.681Z,71.50
2023-04-03T13:12:14.833Z,70.70
2023-04-03T13:14:41.981Z,70.70
2023-04-03T13:17:14.879Z,69.80
2023-04-03T13:19:43.068Z,69.00
2023-04-03T13:22:31.362Z,69.70
2023-04-03T13:25:01.050Z,68.80
2023-04-03T13:27:31.248Z,69.00
2023-04-03T13:29:59.350Z,68.70
2023-04-03T13:32:27.636Z,68.40
2023-04-03T13:34:55.726Z,68.00
2023-04-03T13:37:33.466Z,67.50
2023-04-03T13:40:01.380Z,66.90
2023-04-03T13:42:32.918Z,67.80
2023-04-03T13:45:25.164Z,66.60
2023-04-03T13:47:53.294Z,65.90
2023-04-03T13:50:21.316Z,66.40
2023-04-03T13:52:49.563Z,66.20
2023-04-03T13:55:27.055Z,66.10
2023-04-03T13:57:59.692Z,64.90
2023-04-03T14:00:52.066Z,65.40
2023-04-03T14:03:25.086Z,65.00
2023-04-03T14:05:51.875Z,65.00
2023-04-03T14:08:24.004Z,65.20
2023-04-03T14:10:53.385Z,64.70
2023-04-03T14:13:20.522Z,64.60
2023-04-03T14:15:49.469Z,64.10
2023-04-03T14:18:18.161Z,63.70
2023-04-03T14:20:45.294Z,63.20
2023-04-03T14:23:13.492Z,63.20
2023-04-03T14:25:40.597Z,64.10
2023-04-03T14:28:19.261Z,63.60
2023-04-03T14:30:46.860Z,62.90
2023-04-03T14:33:19.148Z,63.00
2023-04-03T14:35:46.213Z,62.50
2023-04-03T14:38:30.350Z,62.70
2023-04-03T14:41:03.514Z,61.60
2023-04-03T14:43:38.169Z,62.30
2023-04-03T14:46:05.361Z,62.60
2023-04-03T14:48:32.527Z,62.50
2023-04-03T14:51:05.669Z,62.20
2023-04-03T14:56:03.532Z,62.70
2023-04-03T14:58:30.589Z,62.50
2023-04-03T15:00:57.445Z,62.20
2023-04-03T15:03:25.350Z,61.90
2023-04-03T15:05:52.436Z,61.90
2023-04-03T15:08:24.922Z,62.10
2023-04-03T15:10:53.820Z,62.00
2023-04-03T15:13:21.458Z,62.20
2023-04-03T15:15:48.422Z,62.30
2023-04-03T15:18:20.424Z,62.40
2023-04-03T15:20:48.405Z,62.40
2023-04-03T15:23:16.921Z,62.80
2023-04-03T15:25:45.014Z,62.90
2023-04-03T15:28:36.249Z,63.20
2023-04-03T15:31:03.959Z,62.80
2023-04-03T15:33:30.959Z,63.30
2023-04-03T15:36:06.645Z,63.70
2023-04-03T15:38:34.927Z,63.20
2023-04-03T15:41:01.806Z,63.80
2023-04-03T15:43:28.655Z,64.20
2023-04-03T15:45:58.022Z,64.50
2023-04-03T15:48:25.001Z,64.60
2023-04-03T15:50:52.047Z,65.10
2023-04-03T15:53:18.867Z,65.50
2023-04-03T15:55:46.331Z,65.90
2023-04-03T15:58:13.423Z,66.70
2023-04-03T16:00:40.660Z,67.20
2023-04-03T16:03:11.300Z,67.70
2023-04-03T16:05:38.749Z,68.10
2023-04-03T16:08:06.191Z,69.00
2023-04-03T16:10:33.024Z,68.50
2023-04-03T16:12:59.788Z,68.60
2023-04-03T16:15:27.312Z,68.70
2023-04-03T16:17:54.293Z,68.90
2023-04-03T16:20:22.683Z,68.70
2023-04-03T16:22:50.074Z,68.70
2023-04-03T16:25:17.151Z,68.70
2023-04-03T16:27:44.014Z,68.60
2023-04-03T16:30:11.498Z,68.50
2023-04-03T16:32:38.671Z,68.60
2023-04-03T16:35:06.312Z,68.30
2023-04-03T16:37:33.280Z,68.00
2023-04-03T16:40:00.318Z,68.20
2023-04-03T16:42:27.142Z,68.50
2023-04-03T16:44:53.917Z,68.60
2023-04-03T16:47:20.903Z,69.00
2023-04-03T16:49:48.168Z,69.30
2023-04-03T16:52:15.527Z,69.50
2023-04-03T16:54:43.047Z,69.40
2023-04-03T16:57:09.927Z,69.40
2023-04-03T16:59:36.675Z,69.30
2023-04-03T17:02:05.954Z,69.00
2023-04-03T17:04:32.948Z,69.00
2023-04-03T17:07:06.992Z,69.00
2023-04-03T17:09:34.484Z,69.00
2023-04-03T17:12:01.566Z,69.90
2023-04-03T17:14:28.339Z,70.00
2023-04-03T17:16:55.427Z,69.80
2023-04-03T17:19:24.225Z,69.70
2023-04-03T17:21:51.684Z,69.70
2023-04-03T17:24:18.978Z,69.50
2023-04-03T17:26:45.858Z,69.60
2023-04-03T17:29:12.828Z,69.40
2023-04-03T17:31:40.236Z,69.60
2023-04-03T17:34:07.471Z,69.90
2023-04-03T17:36:38.735Z,70.20
2023-04-03T17:39:06.049Z,70.30
2023-04-03T17:41:32.853Z,70.40
2023-04-03T17:43:59.752Z,70.60
2023-04-03T17:46:30.975Z,70.70
2023-04-03T17:49:02.366Z,70.80
2023-04-03T17:51:34.558Z,70.80
2023-04-03T17:54:02.068Z,71.10
2023-04-03T17:56:29.394Z,71.40
2023-04-03T17:58:58.914Z,71.90
2023-04-03T18:01:26.743Z,72.20
2023-04-03T18:03:55.007Z,72.50
2023-04-03T18:06:24.278Z,72.80
2023-04-03T18:08:53.016Z,73.10
2023-04-03T18:11:20.037Z,73.50
2023-04-03T18:13:46.981Z,73.90
2023-04-03T18:16:14.033Z,74.10
2023-04-03T18:18:41.286Z,74.50
2023-04-03T18:21:12.093Z,74.80
2023-04-03T18:23:40.251Z,75.00
2023-04-03T18:26:07.380Z,75.20
2023-04-03T18:28:34.316Z,75.50
2023-04-03T18:31:01.293Z,75.80
2023-04-03T18:33:28.390Z,76.00
2023-04-03T18:35:55.353Z,76.40
2023-04-03T18:38:22.113Z,76.60
2023-04-03T18:40:50.236Z,76.90
2023-04-03T18:43:17.362Z,77.20
2023-04-03T18:45:44.378Z,77.50
2023-04-03T18:48:11.553Z,77.70
2023-04-03T18:50:38.801Z,78.00
2023-04-03T18:53:05.729Z,78.30
2023-04-03T18:55:32.529Z,78.50
2023-04-03T18:57:59.354Z,78.80
2023-04-03T19:00:26.343Z,79.10
2023-04-03T19:02:53.332Z,79.30
2023-04-03T19:05:20.856Z,79.60
2023-04-03T19:07:47.694Z,79.80
2023-04-03T19:10:17.486Z,80.10
2023-04-03T19:12:45.412Z,80.30
2023-04-03T19:15:13.971Z,80.50
2023-04-03T19:17:41.140Z,80.70
2023-04-03T19:20:08.757Z,81.00
2023-04-03T19:22:36.108Z,81.20
2023-04-03T19:25:04.217Z,81.40
2023-04-03T19:27:31.572Z,81.60
2023-04-03T19:29:58.635Z,81.80
2023-04-03T19:32:25.732Z,81.90
2023-04-03T19:34:52.633Z,82.20
2023-04-03T19:37:19.751Z,82.40
2023-04-03T19:39:46.751Z,82.60
2023-04-03T19:42:17.544Z,82.80
2023-04-03T19:44:45.053Z,83.00
2023-04-03T19:47:12.238Z,83.20
2023-04-03T19:49:39.168Z,83.40
2023-04-03T19:52:06.170Z,83.50
2023-04-03T19:54:33.071Z,83.80
2023-04-03T19:57:00.169Z,83.90
2023-04-03T19:59:27.120Z,84.10
2023-04-03T20:01:54.184Z,84.40
2023-04-03T20:04:21.192Z,84.50
2023-04-03T20:06:49.944Z,84.70
2023-04-03T20:09:18.280Z,84.80
2023-04-03T20:11:48.142Z,85.10
2023-04-03T20:14:16.655Z,85.30
2023-04-03T20:16:44.674Z,85.40
2023-04-03T20:19:11.556Z,85.60
2023-04-03T20:21:38.876Z,85.70
2023-04-03T20:24:06.842Z,86.00
2023-04-03T20:26:38.830Z,86.10
2023-04-03T20:29:05.664Z,86.30
2023-04-03T20:31:32.894Z,86.40
2023-04-03T20:33:59.801Z,86.60
2023-04-03T20:36:28.654Z,86.70
2023-04-03T20:38:55.695Z,86.80
2023-04-03T20:41:22.686Z,86.90
2023-04-03T20:43:49.482Z,87.00
2023-04-03T20:46:19.728Z,87.10
2023-04-03T20:48:48.165Z,87.20
2023-04-03T20:51:19.039Z,87.30
2023-04-03T20:53:46.814Z,87.50
2023-04-03T20:56:14.392Z,87.80
2023-04-03T20:58:43.608Z,87.80
2023-04-03T21:01:18.053Z,87.90
2023-04-03T21:03:46.359Z,88.10
2023-04-03T21:06:51.023Z,88.30
2023-04-03T21:09:56.661Z,88.50
2023-04-03T21:13:01.488Z,88.60
2023-04-03T21:15:47.419Z,88.80
2023-04-03T21:18:24.929Z,89.00
2023-04-03T21:20:51.825Z,89.10
2023-04-03T21:23:20.578Z,89.30
2023-04-03T21:25:48.366Z,89.50
2023-04-03T21:28:15.818Z,89.70
2023-04-03T21:30:43.061Z,89.70
2023-04-03T21:33:12.856Z,89.90
2023-04-03T21:35:40.477Z,90.00
2023-04-03T21:38:07.496Z,90.00
2023-04-03T21:40:34.727Z,90.10
2023-04-03T21:43:02.426Z,90.20
2023-04-03T21:45:29.701Z,90.20
2023-04-03T21:47:56.636Z,90.20
2023-04-03T21:50:23.900Z,90.30
2023-04-03T21:52:54.181Z,90.40
2023-04-03T21:55:21.214Z,90.50
2023-04-03T21:57:53.874Z,90.60
2023-04-03T22:00:21.909Z,90.60
2023-04-03T22:02:51.184Z,90.70
2023-04-03T22:05:20.168Z,90.70
2023-04-03T22:07:48.036Z,91.10
2023-04-03T22:10:15.721Z,90.90
2023-04-03T22:12:42.658Z,90.90
2023-04-03T22:15:10.007Z,90.90
2023-04-03T22:17:36.803Z,91.00
2023-04-03T22:20:04.309Z,91.00
2023-04-03T22:22:31.273Z,91.10
2023-04-03T22:24:58.149Z,91.10
2023-04-03T22:27:25.261Z,91.40
2023-04-03T22:29:52.190Z,91.20
2023-04-03T22:32:19.108Z,91.20
2023-04-03T22:34:46.440Z,91.30
2023-04-03T22:37:13.336Z,91.60
2023-04-03T22:39:40.231Z,91.40
2023-04-03T22:42:07.872Z,91.40
2023-04-03T22:44:36.764Z,91.50
2023-04-03T22:47:03.758Z,91.80
2023-04-03T22:49:31.158Z,91.80
2023-04-03T22:51:57.934Z,91.60
2023-04-03T22:54:24.977Z,91.60
2023-04-03T22:56:51.861Z,91.70
2023-04-03T22:59:18.919Z,91.80
2023-04-03T23:01:45.755Z,91.80
2023-04-03T23:04:12.587Z,91.80
2023-04-03T23:06:39.403Z,91.90
2023-04-03T23:09:06.344Z,91.90
2023-04-03T23:11:33.171Z,92.00
2023-04-03T23:14:00.278Z,92.00
2023-04-03T23:16:27.129Z,92.10
2023-04-03T23:19:03.510Z,92.10
2023-04-03T23:21:30.465Z,92.20
2023-04-03T23:23:57.401Z,92.20
2023-04-03T23:26:26.524Z,92.20
2023-04-03T23:28:53.538Z,92.30
2023-04-03T23:31:20.574Z,92.40
2023-04-03T23:33:47.610Z,92.40
2023-04-03T23:36:16.232Z,92.50
2023-04-03T23:38:43.385Z,92.50
2023-04-03T23:41:10.261Z,92.60
2023-04-03T23:43:37.579Z,92.70
2023-04-03T23:46:04.519Z,92.70
2023-04-03T23:48:31.375Z,92.80
2023-04-03T23:50:58.353Z,92.80
2023-04-03T23:53:25.717Z,93.20
2023-04-03T23:55:52.637Z,92.90
2023-04-03T23:58:22.156Z,92.90
